Time;durP1;ratioP1;P1;durP2;ratioP2;P2;SDS_P1;SDS_P2;PMS_P1;PMS_P2;Temp;Humidity;BMP_temperature;BMP_pressure;BME280_temperature;BME280_humidity;BME280_pressure;Samples;Min_cycle;Max_cycle;Signal;HPM_P1;HPM_P2
2023/09/23 00:00:40;;;;;;;7.35;3.58;;;12.90;99.90;;;;;;4995371;28;20149;-67
2023/09/23 00:03:08;;;;;;;6.57;2.97;;;12.90;99.90;;;;;;4995201;28;20046;-67
2023/09/23 00:05:36;;;;;;;5.05;3.20;;;12.90;99.90;;;;;;4979148;28;20050;-68
2023/09/23 00:08:03;;;;;;;5.18;3.10;;;12.90;99.90;;;;;;4979411;28;20046;-67
2023/09/23 00:10:29;;;;;;;5.85;3.25;;;12.90;99.90;;;;;;4979376;28;20080;-67
2023/09/23 00:12:55;;;;;;;5.90;3.33;;;12.90;99.90;;;;;;4995303;28;20042;-67
2023/09/23 00:15:21;;;;;;;5.28;3.20;;;12.90;99.90;;;;;;4996198;28;20057;-67
2023/09/23 00:17:48;;;;;;;6.03;3.70;;;12.90;99.90;;;;;;4995255;28;20045;-67
2023/09/23 00:20:17;;;;;;;6.18;4.00;;;12.90;99.90;;;;;;4995319;28;20194;-68
2023/09/23 00:22:46;;;;;;;6.00;3.80;;;12.90;99.90;;;;;;4962999;28;20050;-68
2023/09/23 00:25:13;;;;;;;5.45;3.90;;;12.80;99.90;;;;;;4994785;28;20081;-68
2023/09/23 00:27:42;;;;;;;7.03;4.10;;;12.80;99.90;;;;;;4978716;28;20047;-68
2023/09/23 00:30:12;;;;;;;6.18;4.22;;;12.80;99.90;;;;;;4978786;28;20089;-68
2023/09/23 00:32:39;;;;;;;6.15;3.90;;;12.80;99.90;;;;;;4994914;28;20088;-68
2023/09/23 00:35:06;;;;;;;6.22;4.07;;;12.80;99.90;;;;;;4994650;28;20042;-68
2023/09/23 00:37:33;;;;;;;6.40;4.03;;;12.90;99.90;;;;;;4978915;28;20553;-68
2023/09/23 00:39:59;;;;;;;6.95;4.40;;;12.80;99.90;;;;;;4978701;28;20057;-68
2023/09/23 00:42:25;;;;;;;7.25;4.07;;;12.80;99.90;;;;;;4962056;28;20046;-68
2023/09/23 00:44:51;;;;;;;6.88;4.50;;;12.80;99.90;;;;;;4978412;28;20053;-69
2023/09/23 00:47:19;;;;;;;7.07;4.30;;;12.80;99.90;;;;;;4962561;28;20034;-68
2023/09/23 00:49:46;;;;;;;6.93;3.60;;;12.80;99.90;;;;;;4994549;28;20052;-68
2023/09/23 00:52:16;;;;;;;5.82;3.80;;;12.80;99.90;;;;;;4994448;28;20109;-67
2023/09/23 00:54:46;;;;;;;6.28;3.60;;;12.80;99.90;;;;;;4994574;28;20050;-67
2023/09/23 00:57:13;;;;;;;5.55;3.70;;;12.80;99.90;;;;;;4994284;28;20142;-68
2023/09/23 00:59:40;;;;;;;6.13;3.83;;;12.70;99.90;;;;;;4962016;28;20042;-67
2023/09/23 01:02:06;;;;;;;6.47;4.03;;;12.70;99.90;;;;;;4962326;28;20092;-67
2023/09/23 01:04:35;;;;;;;7.13;4.25;;;12.70;99.90;;;;;;4994368;28;20089;-67
2023/09/23 01:07:02;;;;;;;9.52;5.53;;;12.70;99.90;;;;;;4995829;28;20047;-68
2023/09/23 01:09:31;;;;;;;6.43;4.63;;;12.70;99.90;;;;;;4994327;28;20046;-67
2023/09/23 01:11:57;;;;;;;8.05;5.85;;;12.70;99.90;;;;;;4995912;28;20501;-67
2023/09/23 01:14:23;;;;;;;6.00;4.22;;;12.70;99.90;;;;;;4977640;28;20050;-67
2023/09/23 01:16:50;;;;;;;7.18;5.28;;;12.70;99.90;;;;;;4994080;28;20038;-67
2023/09/23 01:19:17;;;;;;;6.70;5.10;;;12.70;99.90;;;;;;4993749;28;20046;-67
2023/09/23 01:21:42;;;;;;;6.82;4.65;;;12.60;99.90;;;;;;4994103;28;20526;-68
2023/09/23 01:24:08;;;;;;;7.38;4.93;;;12.60;99.90;;;;;;4994092;28;20082;-68
2023/09/23 01:26:34;;;;;;;7.03;5.38;;;12.60;99.90;;;;;;4994348;28;20042;-68
2023/09/23 01:29:07;;;;;;;7.07;4.70;;;12.60;99.90;;;;;;4993664;28;20100;-68
2023/09/23 01:31:35;;;;;;;6.97;4.68;;;12.60;99.90;;;;;;4993908;28;20042;-68
2023/09/23 01:34:01;;;;;;;8.32;5.40;;;12.60;99.90;;;;;;4978037;28;20142;-68
2023/09/23 01:36:27;;;;;;;6.40;4.30;;;12.60;99.90;;;;;;4993746;28;20591;-68
2023/09/23 01:38:53;;;;;;;6.70;5.00;;;12.60;99.90;;;;;;4993431;28;20154;-68
2023/09/23 01:41:19;;;;;;;6.38;4.68;;;12.60;99.90;;;;;;4993682;28;20042;-70
2023/09/23 01:43:44;;;;;;;7.65;4.93;;;12.70;99.90;;;;;;4993220;28;20518;-68
2023/09/23 01:46:10;;;;;;;6.97;4.43;;;12.70;99.90;;;;;;4993439;28;20049;-68
2023/09/23 01:48:38;;;;;;;6.70;4.65;;;12.70;99.90;;;;;;4977059;28;20088;-68
2023/09/23 01:51:06;;;;;;;8.20;5.78;;;13.00;99.90;;;;;;4977511;28;20046;-68
2023/09/23 01:53:32;;;;;;;6.72;5.05;;;12.70;99.90;;;;;;4993185;28;20042;-69
2023/09/23 01:55:57;;;;;;;8.50;5.30;;;12.60;99.90;;;;;;4993143;28;20498;-68
2023/09/23 01:58:23;;;;;;;6.53;4.32;;;12.60;99.90;;;;;;4993089;28;20042;-68
2023/09/23 02:00:55;;;;;;;7.03;4.40;;;12.60;99.90;;;;;;4993093;28;20054;-69
2023/09/23 02:03:23;;;;;;;6.80;3.80;;;12.60;99.90;;;;;;4992969;28;20125;-68
2023/09/23 02:05:49;;;;;;;5.95;3.50;;;12.60;99.90;;;;;;4976978;28;20048;-68
2023/09/23 02:08:15;;;;;;;5.95;3.53;;;12.60;99.90;;;;;;4976788;28;20227;-68
2023/09/23 02:10:48;;;;;;;6.25;3.80;;;12.50;99.90;;;;;;4993073;28;20042;-68
2023/09/23 02:13:14;;;;;;;5.57;3.58;;;12.50;99.90;;;;;;4992904;28;20133;-68
2023/09/23 02:15:40;;;;;;;6.80;3.78;;;12.50;99.90;;;;;;4993236;28;20073;-67
2023/09/23 02:18:06;;;;;;;7.70;4.55;;;12.50;99.90;;;;;;4976788;28;20053;-67
2023/09/23 02:20:32;;;;;;;6.47;4.30;;;12.50;99.90;;;;;;4993258;28;20046;-68
2023/09/23 02:22:57;;;;;;;7.63;4.93;;;12.50;99.90;;;;;;4992798;28;20043;-67
2023/09/23 02:25:26;;;;;;;6.72;4.43;;;12.50;99.90;;;;;;4976717;28;20491;-67
2023/09/23 02:27:52;;;;;;;6.80;4.80;;;12.50;99.90;;;;;;4993244;28;20553;-68
2023/09/23 02:30:18;;;;;;;7.82;5.60;;;12.50;99.90;;;;;;4976525;28;20050;-68
2023/09/23 02:32:45;;;;;;;8.00;5.40;;;12.50;99.90;;;;;;4992808;28;20046;-67
2023/09/23 02:35:19;;;;;;;7.75;5.45;;;12.40;99.90;;;;;;4976682;28;20050;-68
2023/09/23 02:37:48;;;;;;;8.90;6.05;;;12.40;99.90;;;;;;4962100;28;20049;-68
2023/09/23 02:40:14;;;;;;;9.00;5.43;;;12.40;99.90;;;;;;4976345;28;20042;-68
2023/09/23 02:42:46;;;;;;;9.93;6.53;;;12.40;99.90;;;;;;4992394;28;20081;-68
2023/09/23 02:45:13;;;;;;;8.45;6.25;;;12.40;99.90;;;;;;4976512;28;20042;-68
2023/09/23 02:47:41;;;;;;;8.95;6.18;;;12.40;99.90;;;;;;4992818;28;20526;-68
2023/09/23 02:50:09;;;;;;;7.78;5.53;;;12.40;99.90;;;;;;4976563;28;20529;-68
2023/09/23 02:52:56;;;;;;;8.32;6.40;;;12.40;99.90;;;;;;4976800;28;20054;-68
2023/09/23 02:55:22;;;;;;;10.35;7.40;;;12.40;99.90;;;;;;4961421;28;20133;-68
2023/09/23 02:58:07;;;;;;;11.10;7.25;;;12.30;99.90;;;;;;4976288;28;20549;-68
2023/09/23 03:00:34;;;;;;;8.57;5.80;;;12.30;99.90;;;;;;4978690;28;20054;-69
2023/09/23 03:03:12;;;;;;;8.38;5.63;;;12.30;99.90;;;;;;4976720;28;20125;-68
2023/09/23 03:05:44;;;;;;;9.50;6.90;;;12.30;99.90;;;;;;4976157;28;20054;-68
2023/09/23 03:08:14;;;;;;;8.38;5.45;;;12.30;99.90;;;;;;4976443;28;20468;-68
2023/09/23 03:10:44;;;;;;;9.60;5.45;;;12.30;99.90;;;;;;4960870;28;20043;-68
2023/09/23 03:13:11;;;;;;;8.68;6.28;;;12.30;99.90;;;;;;4992800;28;20471;-68
2023/09/23 03:15:52;;;;;;;6.40;3.90;;;12.20;99.90;;;;;;4992492;28;20046;-68
2023/09/23 03:18:28;;;;;;;7.63;4.50;;;12.20;99.90;;;;;;4992437;28;20046;-68
2023/09/23 03:20:57;;;;;;;6.80;4.68;;;12.20;99.90;;;;;;4992539;28;20046;-69
2023/09/23 03:23:23;;;;;;;9.32;7.10;;;12.20;99.90;;;;;;4992490;28;20121;-68
2023/09/23 03:25:51;;;;;;;10.57;7.60;;;12.10;99.90;;;;;;4992136;28;20130;-68
2023/09/23 03:28:17;;;;;;;8.98;5.72;;;12.10;99.90;;;;;;4960253;28;20483;-68
2023/09/23 03:30:47;;;;;;;7.95;5.35;;;11.90;99.90;;;;;;4976037;28;20045;-68
2023/09/23 03:33:14;;;;;;;8.57;6.10;;;11.90;99.90;;;;;;4992125;28;20046;-68
2023/09/23 03:35:40;;;;;;;8.27;5.57;;;11.90;99.90;;;;;;4979953;28;20047;-68
2023/09/23 03:38:06;;;;;;;9.23;5.82;;;11.90;99.90;;;;;;4996037;28;20048;-68
2023/09/23 03:40:32;;;;;;;13.50;5.88;;;11.90;99.90;;;;;;4979478;28;20085;-68
2023/09/23 03:43:01;;;;;;;10.93;7.72;;;11.80;99.90;;;;;;4997091;28;20129;-68
2023/09/23 03:45:27;;;;;;;11.68;6.65;;;11.70;99.90;;;;;;4995872;28;20460;-68
2023/09/23 03:47:53;;;;;;;9.68;7.65;;;11.70;99.90;;;;;;4979526;28;20042;-68
2023/09/23 03:50:19;;;;;;;13.27;9.27;;;11.60;99.90;;;;;;4995500;28;20034;-68
2023/09/23 03:52:45;;;;;;;10.15;8.80;;;11.50;99.90;;;;;;4995487;28;20120;-68
2023/09/23 03:55:14;;;;;;;13.02;9.18;;;11.50;99.90;;;;;;4979209;28;20042;-67
2023/09/23 03:57:44;;;;;;;11.57;8.85;;;11.40;99.90;;;;;;4964547;28;20049;-68
2023/09/23 04:00:17;;;;;;;13.05;10.00;;;11.40;99.90;;;;;;4995621;28;20388;-67
2023/09/23 04:02:49;;;;;;;11.18;9.25;;;11.30;99.90;;;;;;4980101;28;20407;-68
2023/09/23 04:05:20;;;;;;;12.35;8.55;;;11.30;99.90;;;;;;4995107;28;20054;-67
2023/09/23 04:07:49;;;;;;;15.38;12.13;;;11.20;99.90;;;;;;4979373;28;20110;-68
2023/09/23 04:10:19;;;;;;;11.90;9.68;;;11.20;99.90;;;;;;4995159;28;20042;-67
2023/09/23 04:12:49;;;;;;;10.68;8.82;;;11.20;99.90;;;;;;4995444;28;20050;-68
2023/09/23 04:15:19;;;;;;;12.65;10.48;;;11.20;99.90;;;;;;4995414;28;20112;-67
2023/09/23 04:17:45;;;;;;;15.52;12.82;;;11.20;99.90;;;;;;4995189;28;20046;-67
2023/09/23 04:20:11;;;;;;;11.63;8.98;;;11.10;99.90;;;;;;4994995;28;20046;-67
2023/09/23 04:22:46;;;;;;;11.70;9.27;;;11.10;99.90;;;;;;4995085;28;20046;-67
2023/09/23 04:25:14;;;;;;;12.77;10.95;;;11.10;99.90;;;;;;4963343;28;20038;-68
2023/09/23 04:27:40;;;;;;;18.50;13.98;;;11.10;99.90;;;;;;4994872;28;20046;-68
2023/09/23 04:30:11;;;;;;;15.80;13.30;;;11.10;99.90;;;;;;4962553;28;20058;-68
2023/09/23 04:32:46;;;;;;;16.73;14.48;;;11.20;99.90;;;;;;4995113;28;20046;-67
2023/09/23 04:35:16;;;;;;;15.63;13.70;;;11.10;99.90;;;;;;4994740;28;20046;-68
2023/09/23 04:37:42;;;;;;;16.10;13.02;;;11.20;99.90;;;;;;4994562;28;20050;-68
2023/09/23 04:40:12;;;;;;;15.52;12.55;;;11.20;99.90;;;;;;4994638;28;20502;-68
2023/09/23 04:42:41;;;;;;;14.57;12.93;;;11.20;99.90;;;;;;4994692;28;20122;-68
2023/09/23 04:45:09;;;;;;;21.13;16.92;;;11.20;99.90;;;;;;4978130;28;20152;-68
2023/09/23 04:47:38;;;;;;;21.85;16.90;;;11.20;99.90;;;;;;4994592;28;20399;-68
2023/09/23 04:50:05;;;;;;;19.95;16.45;;;11.20;99.90;;;;;;4978937;28;20502;-68
2023/09/23 04:52:35;;;;;;;19.70;14.82;;;11.10;99.90;;;;;;4978349;28;20038;-68
2023/09/23 04:55:02;;;;;;;19.10;15.75;;;11.10;99.90;;;;;;4994543;28;20595;-67
2023/09/23 04:57:28;;;;;;;16.30;13.68;;;11.00;99.90;;;;;;4978708;28;20498;-67
2023/09/23 04:59:54;;;;;;;14.85;12.43;;;11.00;99.90;;;;;;4978073;28;20073;-66
2023/09/23 05:02:21;;;;;;;17.95;15.57;;;11.00;99.90;;;;;;4978434;28;20442;-68
2023/09/23 05:04:48;;;;;;;19.08;15.48;;;11.00;99.90;;;;;;4978111;28;20053;-68
2023/09/23 05:07:14;;;;;;;17.98;15.18;;;10.90;99.90;;;;;;4978407;28;20073;-68
2023/09/23 05:09:41;;;;;;;15.73;13.43;;;10.90;99.90;;;;;;4961884;28;20076;-68
2023/09/23 05:12:08;;;;;;;16.75;14.20;;;10.90;99.90;;;;;;4994003;28;20070;-68
2023/09/23 05:14:39;;;;;;;16.95;14.07;;;10.90;99.90;;;;;;4994015;28;20084;-68
2023/09/23 05:17:05;;;;;;;15.57;12.98;;;10.90;99.90;;;;;;4993971;28;20145;-68
2023/09/23 05:19:32;;;;;;;20.20;15.32;;;10.80;99.90;;;;;;4993904;28;20030;-67
2023/09/23 05:21:58;;;;;;;20.98;16.73;;;10.80;99.90;;;;;;4993832;28;20112;-67
2023/09/23 05:24:27;;;;;;;16.08;13.32;;;10.80;99.90;;;;;;4977595;28;20035;-68
2023/09/23 05:26:56;;;;;;;26.00;19.13;;;10.80;99.90;;;;;;4978190;28;20043;-68
2023/09/23 05:29:22;;;;;;;23.17;17.30;;;10.80;99.90;;;;;;4993683;28;20042;-68
2023/09/23 05:31:48;;;;;;;25.65;19.90;;;10.80;99.90;;;;;;4993628;28;20054;-68
2023/09/23 05:34:20;;;;;;;26.15;19.77;;;10.80;99.90;;;;;;4993764;28;20546;-68
2023/09/23 05:36:46;;;;;;;30.33;21.73;;;10.80;99.90;;;;;;4962468;28;20129;-68
2023/09/23 05:39:23;;;;;;;28.67;22.67;;;10.90;99.90;;;;;;4993726;28;20539;-67
2023/09/23 05:41:51;;;;;;;30.15;22.42;;;10.90;99.90;;;;;;4993838;28;20054;-68
2023/09/23 05:44:18;;;;;;;35.33;27.17;;;11.00;99.90;;;;;;4993503;28;20046;-68
2023/09/23 05:46:53;;;;;;;35.67;25.58;;;11.10;99.90;;;;;;4977753;28;20399;-69
2023/09/23 05:49:22;;;;;;;44.40;31.02;;;11.20;99.90;;;;;;4962658;28;20125;-68
2023/09/23 05:52:10;;;;;;;40.90;29.65;;;11.20;99.90;;;;;;4978358;28;20038;-68
2023/09/23 05:54:36;;;;;;;39.95;30.67;;;11.20;99.90;;;;;;4993275;28;20105;-68
2023/09/23 05:57:02;;;;;;;47.35;33.75;;;11.30;99.90;;;;;;4960350;28;20046;-68
2023/09/23 05:59:28;;;;;;;40.97;32.20;;;11.30;99.90;;;;;;4976950;28;20046;-68
2023/09/23 06:01:54;;;;;;;41.58;32.00;;;11.30;99.90;;;;;;4993479;28;20622;-68
2023/09/23 06:04:33;;;;;;;44.10;33.88;;;11.40;99.90;;;;;;4993119;28;20060;-69
2023/09/23 06:06:59;;;;;;;42.83;33.85;;;11.40;99.90;;;;;;4978948;28;20497;-68
2023/09/23 06:09:28;;;;;;;40.40;32.25;;;11.40;99.90;;;;;;4993109;28;20157;-69
2023/09/23 06:12:00;;;;;;;54.97;37.88;;;11.50;99.90;;;;;;4993319;28;20053;-69
2023/09/23 06:14:32;;;;;;;48.90;35.95;;;11.50;99.90;;;;;;4948832;28;20122;-68
2023/09/23 06:17:14;;;;;;;47.17;35.53;;;11.60;99.90;;;;;;4993182;28;20042;-69
2023/09/23 06:19:40;;;;;;;47.53;37.28;;;11.60;99.90;;;;;;4993127;28;20046;-69
2023/09/23 06:22:05;;;;;;;48.75;37.60;;;11.60;99.90;;;;;;4993027;28;20153;-67
2023/09/23 06:24:31;;;;;;;53.58;39.28;;;11.70;99.90;;;;;;4992832;28;20530;-69
2023/09/23 06:26:57;;;;;;;51.55;38.40;;;11.70;99.90;;;;;;4992982;28;20453;-69
2023/09/23 06:29:23;;;;;;;45.55;36.15;;;11.70;99.90;;;;;;4992967;28;20471;-68
2023/09/23 06:31:48;;;;;;;47.08;37.05;;;11.80;99.90;;;;;;4976675;28;20492;-68
2023/09/23 06:34:23;;;;;;;47.97;38.45;;;11.80;99.90;;;;;;4992908;28;20046;-67
2023/09/23 06:36:49;;;;;;;50.40;38.65;;;11.90;99.90;;;;;;4992969;28;20038;-68
2023/09/23 06:39:15;;;;;;;51.00;39.67;;;12.00;99.90;;;;;;4976614;28;20116;-68
2023/09/23 06:41:41;;;;;;;46.65;37.38;;;12.00;99.90;;;;;;4993407;28;20050;-68
2023/09/23 06:44:07;;;;;;;48.58;37.70;;;12.00;99.90;;;;;;4976409;28;20096;-69
2023/09/23 06:46:33;;;;;;;50.60;37.63;;;12.10;99.90;;;;;;4992799;28;20050;-68
2023/09/23 06:49:08;;;;;;;51.97;37.88;;;12.10;99.90;;;;;;4992693;28;20108;-68
2023/09/23 06:51:33;;;;;;;45.60;34.80;;;12.10;99.90;;;;;;4976578;28;20065;-69
2023/09/23 06:54:02;;;;;;;50.47;38.47;;;12.20;99.90;;;;;;4992488;28;20073;-69
2023/09/23 06:56:28;;;;;;;45.03;36.42;;;12.30;99.90;;;;;;4976785;28;20471;-69
2023/09/23 06:58:57;;;;;;;44.03;34.97;;;12.40;99.90;;;;;;4992685;28;20100;-70
2023/09/23 07:01:22;;;;;;;46.10;37.30;;;12.40;99.90;;;;;;4992585;28;20048;-68
2023/09/23 07:03:48;;;;;;;45.03;35.42;;;12.50;99.90;;;;;;4976420;28;20093;-68
2023/09/23 07:06:14;;;;;;;40.42;33.55;;;12.50;99.90;;;;;;4976802;28;20054;-68
2023/09/23 07:09:07;;;;;;;37.92;32.63;;;12.60;99.90;;;;;;4994668;28;20050;-68
2023/09/23 07:11:39;;;;;;;41.45;33.83;;;12.70;99.90;;;;;;4994960;28;20074;-69
2023/09/23 07:14:06;;;;;;;40.88;33.60;;;12.80;99.90;;;;;;4964652;28;20093;-69
2023/09/23 07:16:33;;;;;;;42.25;34.13;;;12.80;99.90;;;;;;4964611;28;20097;-69
2023/09/23 07:19:03;;;;;;;40.38;32.85;;;12.90;99.90;;;;;;4980100;28;20091;-69
2023/09/23 07:21:29;;;;;;;39.72;32.25;;;12.90;99.90;;;;;;4996332;28;20050;-68
2023/09/23 07:23:57;;;;;;;41.10;34.53;;;12.90;99.90;;;;;;4996437;28;20483;-68
2023/09/23 07:26:26;;;;;;;40.65;33.25;;;13.00;99.90;;;;;;4996176;28;20038;-68
2023/09/23 07:28:51;;;;;;;42.08;33.97;;;13.10;99.90;;;;;;4996385;28;20031;-68
2023/09/23 07:31:18;;;;;;;38.13;32.42;;;13.20;99.90;;;;;;4996097;28;20042;-68
2023/09/23 07:33:45;;;;;;;37.90;30.67;;;13.30;99.90;;;;;;4995995;28;20039;-68
2023/09/23 07:36:11;;;;;;;38.42;31.27;;;13.30;99.90;;;;;;4980065;28;20050;-68
2023/09/23 07:38:38;;;;;;;38.85;31.02;;;13.40;99.90;;;;;;4996179;28;20553;-67
2023/09/23 07:41:04;;;;;;;36.80;31.25;;;13.50;99.90;;;;;;4995947;28;20108;-68
2023/09/23 07:43:33;;;;;;;37.47;31.08;;;13.50;99.90;;;;;;4996031;28;20082;-68
2023/09/23 07:46:05;;;;;;;37.90;30.75;;;13.50;99.90;;;;;;4995587;28;20041;-69
2023/09/23 07:48:34;;;;;;;32.47;28.27;;;13.50;99.90;;;;;;4964522;28;20030;-68
2023/09/23 07:51:00;;;;;;;33.90;27.27;;;13.60;99.90;;;;;;4979344;28;20050;-69
2023/09/23 07:53:26;;;;;;;38.17;31.80;;;13.60;99.90;;;;;;4979340;28;20046;-68
2023/09/23 07:55:52;;;;;;;35.67;29.50;;;13.70;99.90;;;;;;4995951;28;20129;-67
2023/09/23 07:58:23;;;;;;;34.85;29.05;;;13.80;99.90;;;;;;4979235;28;20093;-69
2023/09/23 08:00:49;;;;;;;35.05;29.35;;;13.80;99.90;;;;;;4995385;28;20042;-68
2023/09/23 08:03:15;;;;;;;33.13;29.27;;;13.90;99.90;;;;;;4963289;28;20069;-68
2023/09/23 08:05:44;;;;;;;36.75;31.00;;;14.00;99.90;;;;;;4995230;28;20100;-69
2023/09/23 08:08:10;;;;;;;31.60;27.25;;;14.10;99.90;;;;;;4979737;28;20101;-68
2023/09/23 08:10:36;;;;;;;35.08;27.92;;;14.20;99.90;;;;;;4995913;28;20434;-68
2023/09/23 08:13:05;;;;;;;30.08;26.63;;;14.10;99.90;;;;;;4995526;28;20046;-68
2023/09/23 08:15:31;;;;;;;29.88;25.13;;;14.10;99.90;;;;;;4979441;28;20506;-68
2023/09/23 08:17:59;;;;;;;30.52;25.30;;;14.10;99.90;;;;;;4995349;28;20042;-69
2023/09/23 08:20:25;;;;;;;29.40;25.65;;;14.10;99.90;;;;;;4994365;28;20050;-68
2023/09/23 08:22:53;;;;;;;28.30;25.23;;;14.20;99.90;;;;;;4979093;28;20120;-68
2023/09/23 08:25:28;;;;;;;30.05;25.73;;;14.30;99.90;;;;;;4995768;28;20048;-69
2023/09/23 08:27:54;;;;;;;28.15;24.15;;;14.50;99.90;;;;;;4995490;28;20046;-68
2023/09/23 08:30:20;;;;;;;27.35;23.33;;;14.60;99.90;;;;;;4995919;28;20046;-68
2023/09/23 08:32:55;;;;;;;27.23;24.27;;;14.80;99.90;;;;;;4995887;28;20479;-67
2023/09/23 08:35:21;;;;;;;25.25;21.88;;;15.00;99.90;;;;;;4995384;28;20049;-67
2023/09/23 08:37:46;;;;;;;23.17;20.77;;;15.10;99.90;;;;;;4995809;28;20053;-67
2023/09/23 08:40:22;;;;;;;24.98;20.67;;;15.20;99.90;;;;;;4997035;28;20039;-68
2023/09/23 08:42:53;;;;;;;25.45;22.65;;;15.10;99.90;;;;;;4917796;28;20097;-67
2023/09/23 08:45:28;;;;;;;22.55;19.92;;;15.20;99.90;;;;;;4965624;28;20495;-67
2023/09/23 08:47:54;;;;;;;21.92;19.05;;;15.30;99.90;;;;;;4995505;28;20130;-69
2023/09/23 08:50:21;;;;;;;21.92;19.38;;;15.40;99.90;;;;;;4994982;28;20042;-69
2023/09/23 08:52:47;;;;;;;22.15;19.75;;;15.40;99.90;;;;;;4994912;28;20078;-68
2023/09/23 08:55:16;;;;;;;20.92;18.00;;;15.50;99.90;;;;;;4995425;28;20470;-68
2023/09/23 08:57:42;;;;;;;20.58;18.35;;;15.60;99.90;;;;;;4994989;28;20050;-68
2023/09/23 09:00:10;;;;;;;19.95;17.80;;;15.60;99.90;;;;;;4978940;28;20443;-67
2023/09/23 09:02:36;;;;;;;19.88;17.77;;;15.70;99.90;;;;;;4995104;28;20050;-67
2023/09/23 09:05:02;;;;;;;19.35;16.38;;;16.00;99.90;;;;;;4978768;28;20039;-69
2023/09/23 09:07:38;;;;;;;18.38;16.40;;;16.10;99.90;;;;;;4994689;28;20133;-69
2023/09/23 09:10:05;;;;;;;18.40;16.40;;;16.40;99.90;;;;;;4979139;28;20130;-67
2023/09/23 09:12:34;;;;;;;18.10;16.20;;;16.60;99.90;;;;;;4995493;28;20043;-67
2023/09/23 09:15:01;;;;;;;18.05;14.98;;;16.70;99.90;;;;;;4962393;28;20042;-67
2023/09/23 09:17:27;;;;;;;17.50;15.52;;;16.60;99.90;;;;;;4994357;28;20069;-68
2023/09/23 09:19:58;;;;;;;17.92;16.10;;;16.50;99.90;;;;;;4994575;28;20085;-68
2023/09/23 09:22:24;;;;;;;16.92;15.13;;;16.20;99.90;;;;;;4994386;28;20042;-69
2023/09/23 09:24:50;;;;;;;16.02;14.32;;;16.10;99.90;;;;;;4978539;28;20054;-68
2023/09/23 09:27:21;;;;;;;16.33;14.45;;;16.00;99.90;;;;;;4979148;28;20054;-68
2023/09/23 09:29:47;;;;;;;17.60;15.60;;;16.10;99.90;;;;;;4994358;28;20117;-66
2023/09/23 09:32:16;;;;;;;16.73;14.75;;;16.20;99.90;;;;;;4977992;28;20121;-68
2023/09/23 09:34:46;;;;;;;14.55;13.05;;;16.20;99.90;;;;;;4994178;28;20108;-66
2023/09/23 09:37:14;;;;;;;14.85;13.25;;;16.50;99.90;;;;;;4994008;28;20463;-67
2023/09/23 09:39:53;;;;;;;15.85;14.00;;;16.70;99.90;;;;;;4977430;28;20053;-68
2023/09/23 09:42:30;;;;;;;16.77;14.73;;;16.60;99.90;;;;;;4993431;28;20046;-67
2023/09/23 09:44:57;;;;;;;16.05;14.32;;;16.60;99.90;;;;;;4977605;28;20047;-68
2023/09/23 09:47:29;;;;;;;14.85;13.15;;;16.70;99.90;;;;;;4993739;28;20185;-68
2023/09/23 09:49:55;;;;;;;13.60;12.15;;;17.00;99.90;;;;;;4993602;28;20046;-68
2023/09/23 09:52:22;;;;;;;13.77;12.32;;;17.20;99.90;;;;;;4993725;28;20483;-67
2023/09/23 09:54:52;;;;;;;12.82;11.43;;;17.40;99.90;;;;;;4961687;28;20047;-67
2023/09/23 09:57:22;;;;;;;12.45;10.68;;;17.50;99.90;;;;;;4977780;28;20125;-67
2023/09/23 09:59:50;;;;;;;11.25;9.63;;;17.80;99.90;;;;;;4993542;28;20073;-68
2023/09/23 10:02:17;;;;;;;14.55;11.13;;;17.90;99.90;;;;;;4977521;28;20124;-68
2023/09/23 10:04:49;;;;;;;12.50;10.52;;;17.90;99.90;;;;;;4977191;28;20414;-66
2023/09/23 10:07:14;;;;;;;13.13;9.57;;;17.70;99.90;;;;;;4994278;28;20051;-66
2023/09/23 10:09:55;;;;;;;10.55;8.82;;;17.60;99.90;;;;;;4976917;28;20087;-66
2023/09/23 10:12:32;;;;;;;11.45;9.02;;;17.50;99.90;;;;;;4993201;28;20049;-68
2023/09/23 10:14:59;;;;;;;11.82;9.27;;;17.40;99.90;;;;;;4993102;28;20053;-67
2023/09/23 10:17:32;;;;;;;10.20;8.43;;;17.30;99.90;;;;;;4993091;28;20050;-67
2023/09/23 10:20:17;;;;;;;11.02;8.82;;;17.50;99.90;;;;;;4993564;28;20065;-68
2023/09/23 10:22:54;;;;;;;11.27;8.02;;;17.60;99.90;;;;;;4960739;28;20050;-67
2023/09/23 10:25:23;;;;;;;10.88;7.40;;;17.80;99.90;;;;;;4993211;28;20046;-67
2023/09/23 10:28:00;;;;;;;9.85;7.22;;;17.90;99.90;;;;;;4992923;28;20129;-67
2023/09/23 10:30:26;;;;;;;9.50;6.68;;;18.00;99.90;;;;;;4976639;28;20111;-67
2023/09/23 10:32:52;;;;;;;10.13;6.60;;;18.20;99.90;;;;;;4976587;28;20042;-67
2023/09/23 10:35:26;;;;;;;9.52;6.57;;;18.40;99.90;;;;;;4976639;28;20049;-67
2023/09/23 10:37:52;;;;;;;10.23;6.13;;;18.40;99.90;;;;;;4993068;28;20038;-66
2023/09/23 10:40:19;;;;;;;9.00;5.75;;;18.50;99.90;;;;;;4992566;28;20050;-67
2023/09/23 10:42:49;;;;;;;10.13;6.40;;;18.60;99.90;;;;;;4992197;28;20064;-69
2023/09/23 10:45:17;;;;;;;9.50;5.63;;;18.70;99.90;;;;;;4976780;28;20104;-67
2023/09/23 10:47:43;;;;;;;7.72;5.22;;;18.60;99.90;;;;;;4976977;28;20100;-69
2023/09/23 10:50:14;;;;;;;9.70;6.03;;;18.50;99.90;;;;;;4976440;28;20042;-69
2023/09/23 10:52:40;;;;;;;10.68;5.68;;;18.30;99.90;;;;;;4976628;28;20045;-68
2023/09/23 10:55:09;;;;;;;8.90;5.30;;;18.00;99.90;;;;;;4992632;28;20125;-69
2023/09/23 10:57:38;;;;;;;10.43;6.10;;;18.10;99.90;;;;;;4976705;28;20047;-67
2023/09/23 11:00:14;;;;;;;9.57;5.32;;;18.30;99.90;;;;;;4992713;28;20034;-68
2023/09/23 11:02:43;;;;;;;9.77;5.20;;;18.60;99.90;;;;;;4993008;28;20532;-69
2023/09/23 11:05:11;;;;;;;11.35;4.90;;;18.80;99.90;;;;;;4992843;28;20106;-68
2023/09/23 11:07:36;;;;;;;8.43;4.00;;;18.90;99.90;;;;;;4975963;28;20205;-69
2023/09/23 11:10:02;;;;;;;8.48;4.40;;;18.80;99.90;;;;;;4976455;28;20546;-68
2023/09/23 11:12:33;;;;;;;8.57;3.97;;;18.70;99.90;;;;;;4976326;28;20069;-69
2023/09/23 11:14:59;;;;;;;8.80;3.60;;;18.50;99.90;;;;;;4992404;28;20050;-68
2023/09/23 11:17:30;;;;;;;8.70;3.83;;;18.50;99.90;;;;;;4976304;28;20046;-68
2023/09/23 11:19:57;;;;;;;8.00;3.88;;;18.40;99.90;;;;;;4992780;28;20078;-68
2023/09/23 11:22:28;;;;;;;7.47;3.50;;;18.40;99.90;;;;;;4992444;28;20042;-69
2023/09/23 11:24:55;;;;;;;7.60;3.03;;;18.30;99.90;;;;;;4976366;28;20074;-70
2023/09/23 11:27:22;;;;;;;7.95;3.30;;;18.20;99.90;;;;;;4960029;28;20321;-69
2023/09/23 11:29:49;;;;;;;8.82;3.50;;;18.00;99.90;;;;;;4976232;28;20039;-69
2023/09/23 11:32:21;;;;;;;8.70;3.17;;;17.80;99.90;;;;;;4992145;28;20046;-69
2023/09/23 11:34:52;;;;;;;8.02;3.10;;;17.80;99.90;;;;;;4992108;28;20050;-67
2023/09/23 11:37:30;;;;;;;6.88;2.92;;;17.80;99.90;;;;;;4992199;28;20046;-68
2023/09/23 11:39:56;;;;;;;7.10;2.60;;;17.80;99.90;;;;;;4993526;28;20046;-68
2023/09/23 11:42:22;;;;;;;6.93;2.92;;;17.80;99.90;;;;;;4975956;28;20054;-68
2023/09/23 11:44:49;;;;;;;7.57;2.85;;;17.60;99.90;;;;;;4975788;28;20410;-69
2023/09/23 11:47:20;;;;;;;5.90;3.03;;;17.40;99.90;;;;;;4976111;28;20046;-69
2023/09/23 11:49:50;;;;;;;7.22;3.50;;;17.30;99.90;;;;;;4976462;28;20058;-69
2023/09/23 11:52:22;;;;;;;8.93;3.40;;;17.30;99.90;;;;;;4976402;28;20030;-68
2023/09/23 11:54:48;;;;;;;6.90;3.67;;;17.30;99.90;;;;;;4993021;28;20061;-68
2023/09/23 11:57:14;;;;;;;6.82;3.17;;;17.30;99.90;;;;;;4996376;28;20042;-68
2023/09/23 11:59:40;;;;;;;8.80;3.80;;;17.50;99.90;;;;;;4963469;28;20105;-68
2023/09/23 12:02:08;;;;;;;8.20;3.65;;;17.60;99.90;;;;;;4979431;28;20049;-68
2023/09/23 12:04:34;;;;;;;7.05;3.13;;;17.70;99.90;;;;;;4995328;28;20092;-69
2023/09/23 12:07:00;;;;;;;7.60;3.55;;;17.90;99.90;;;;;;4995453;28;20058;-69
2023/09/23 12:09:27;;;;;;;6.97;3.28;;;17.90;99.90;;;;;;4979503;28;20486;-69
2023/09/23 12:11:53;;;;;;;6.47;3.20;;;18.00;99.90;;;;;;4995302;28;20085;-68
2023/09/23 12:14:19;;;;;;;6.80;3.70;;;18.20;99.90;;;;;;4995230;28;20093;-69
2023/09/23 12:16:46;;;;;;;8.18;3.70;;;18.20;99.90;;;;;;4979536;28;20039;-69
2023/09/23 12:19:11;;;;;;;7.35;3.70;;;18.10;99.90;;;;;;4978844;28;20046;-69
2023/09/23 12:21:37;;;;;;;8.55;3.40;;;18.00;99.90;;;;;;4979236;28;20041;-70
2023/09/23 12:24:04;;;;;;;6.60;3.22;;;18.00;99.90;;;;;;4962808;28;20498;-68
2023/09/23 12:26:31;;;;;;;7.38;2.95;;;18.10;99.90;;;;;;4995036;28;20150;-69
2023/09/23 12:29:04;;;;;;;5.93;2.50;;;18.30;99.90;;;;;;4979851;28;20144;-69
2023/09/23 12:31:30;;;;;;;5.82;2.60;;;18.40;99.90;;;;;;4994907;28;20042;-69
2023/09/23 12:33:56;;;;;;;5.88;2.38;;;18.40;99.90;;;;;;4978657;28;20050;-68
2023/09/23 12:36:23;;;;;;;5.68;2.28;;;18.40;99.90;;;;;;4978941;28;20069;-68
2023/09/23 12:38:49;;;;;;;5.43;2.13;;;18.20;99.90;;;;;;4996240;28;20046;-68
2023/09/23 12:41:16;;;;;;;6.82;2.20;;;18.20;99.90;;;;;;4978928;28;20049;-68